Terminal Aerodrome Forecast
Issued by NWS Jackson, KY

Home | Current Version | Previous Version | Text Only | Print | Product List | Glossary On
Versions: 1 2 3 4 5 6 7 8 9 10 11 12 13 14 15 16 17 18
000
FTUS43 KJKL 211120
TAFLOZ
TAF
KLOZ 211120Z 2112/2212 31006KT 6SM -DZ BR OVC015
     FM211600 30008KT P6SM OVC025
     FM220100 32003KT P6SM BKN050=

USA.gov is the U.S. government's official web portal to all federal, state and local government web resources and services.